sensor_id;sensor_type;location;lat;lon;timestamp;P1;durP1;ratioP1;P2;durP2;ratioP2
11471;SDS011;47430;50.808;4.388;2022-09-27T00:01:09;5.87;;;1.90;;
11471;SDS011;47430;50.808;4.388;2022-09-27T00:03:36;5.60;;;1.90;;
11471;SDS011;47430;50.808;4.388;2022-09-27T00:08:38;8.43;;;1.80;;
11471;SDS011;47430;50.808;4.388;2022-09-27T00:11:05;3.93;;;2.23;;
11471;SDS011;47430;50.808;4.388;2022-09-27T00:13:32;4.23;;;1.70;;
11471;SDS011;47430;50.808;4.388;2022-09-27T00:15:58;5.03;;;1.60;;
11471;SDS011;47430;50.808;4.388;2022-09-27T00:18:25;6.10;;;1.60;;
11471;SDS011;47430;50.808;4.388;2022-09-27T00:20:51;2.43;;;1.33;;
11471;SDS011;47430;50.808;4.388;2022-09-27T00:23:18;2.20;;;1.43;;
11471;SDS011;47430;50.808;4.388;2022-09-27T00:26:05;3.10;;;1.30;;
11471;SDS011;47430;50.808;4.388;2022-09-27T00:28:30;5.33;;;1.20;;
11471;SDS011;47430;50.808;4.388;2022-09-27T00:30:56;4.07;;;1.20;;
11471;SDS011;47430;50.808;4.388;2022-09-27T00:33:23;1.43;;;1.30;;
11471;SDS011;47430;50.808;4.388;2022-09-27T00:35:49;2.73;;;1.27;;
11471;SDS011;47430;50.808;4.388;2022-09-27T00:38:15;2.40;;;1.40;;
11471;SDS011;47430;50.808;4.388;2022-09-27T00:40:41;3.40;;;1.20;;
11471;SDS011;47430;50.808;4.388;2022-09-27T00:43:18;2.63;;;1.20;;
11471;SDS011;47430;50.808;4.388;2022-09-27T00:45:58;5.43;;;1.40;;
11471;SDS011;47430;50.808;4.388;2022-09-27T00:48:26;3.93;;;1.43;;
11471;SDS011;47430;50.808;4.388;2022-09-27T00:50:54;4.53;;;1.40;;
11471;SDS011;47430;50.808;4.388;2022-09-27T00:53:27;5.43;;;1.50;;
11471;SDS011;47430;50.808;4.388;2022-09-27T00:55:58;6.33;;;1.90;;
11471;SDS011;47430;50.808;4.388;2022-09-27T00:58:29;1.27;;;1.10;;
11471;SDS011;47430;50.808;4.388;2022-09-27T01:00:58;4.30;;;1.27;;
11471;SDS011;47430;50.808;4.388;2022-09-27T01:03:37;6.03;;;1.53;;
11471;SDS011;47430;50.808;4.388;2022-09-27T01:06:05;7.97;;;2.50;;
11471;SDS011;47430;50.808;4.388;2022-09-27T01:08:32;3.13;;;1.17;;
11471;SDS011;47430;50.808;4.388;2022-09-27T01:16:33;4.97;;;1.37;;
11471;SDS011;47430;50.808;4.388;2022-09-27T01:22:06;2.50;;;1.10;;
11471;SDS011;47430;50.808;4.388;2022-09-27T01:34:49;4.67;;;1.30;;
11471;SDS011;47430;50.808;4.388;2022-09-27T01:40:28;1.57;;;1.10;;
11471;SDS011;47430;50.808;4.388;2022-09-27T01:43:16;1.60;;;1.03;;
11471;SDS011;47430;50.808;4.388;2022-09-27T01:45:46;3.60;;;1.47;;
11471;SDS011;47430;50.808;4.388;2022-09-27T01:48:32;2.33;;;1.00;;
11471;SDS011;47430;50.808;4.388;2022-09-27T01:51:12;2.40;;;1.23;;
11471;SDS011;47430;50.808;4.388;2022-09-27T01:53:41;2.13;;;1.20;;
11471;SDS011;47430;50.808;4.388;2022-09-27T01:56:20;2.97;;;1.10;;
11471;SDS011;47430;50.808;4.388;2022-09-27T01:58:58;5.90;;;1.30;;
11471;SDS011;47430;50.808;4.388;2022-09-27T02:01:27;7.43;;;2.50;;
11471;SDS011;47430;50.808;4.388;2022-09-27T02:03:54;3.93;;;1.50;;
11471;SDS011;47430;50.808;4.388;2022-09-27T02:06:23;2.40;;;1.37;;
11471;SDS011;47430;50.808;4.388;2022-09-27T02:08:52;2.73;;;1.30;;
11471;SDS011;47430;50.808;4.388;2022-09-27T02:11:19;1.40;;;1.27;;
11471;SDS011;47430;50.808;4.388;2022-09-27T02:13:48;5.70;;;1.63;;
11471;SDS011;47430;50.808;4.388;2022-09-27T02:21:18;3.17;;;1.50;;
11471;SDS011;47430;50.808;4.388;2022-09-27T02:23:52;4.93;;;1.40;;
11471;SDS011;47430;50.808;4.388;2022-09-27T02:26:29;6.03;;;1.70;;
11471;SDS011;47430;50.808;4.388;2022-09-27T02:31:33;5.72;;;1.33;;
11471;SDS011;47430;50.808;4.388;2022-09-27T02:34:00;5.72;;;1.63;;
11471;SDS011;47430;50.808;4.388;2022-09-27T02:36:27;2.23;;;1.40;;
11471;SDS011;47430;50.808;4.388;2022-09-27T02:38:54;4.72;;;1.27;;
11471;SDS011;47430;50.808;4.388;2022-09-27T02:41:21;1.70;;;1.60;;
11471;SDS011;47430;50.808;4.388;2022-09-27T02:43:48;6.13;;;1.83;;
11471;SDS011;47430;50.808;4.388;2022-09-27T02:51:17;2.23;;;1.33;;
11471;SDS011;47430;50.808;4.388;2022-09-27T02:56:18;1.67;;;1.47;;
11471;SDS011;47430;50.808;4.388;2022-09-27T03:01:22;2.70;;;1.50;;
11471;SDS011;47430;50.808;4.388;2022-09-27T03:03:52;4.17;;;1.60;;
11471;SDS011;47430;50.808;4.388;2022-09-27T03:06:23;4.23;;;1.60;;
11471;SDS011;47430;50.808;4.388;2022-09-27T03:08:50;6.07;;;1.90;;
11471;SDS011;47430;50.808;4.388;2022-09-27T03:11:16;4.27;;;1.50;;
11471;SDS011;47430;50.808;4.388;2022-09-27T03:13:42;3.57;;;1.57;;
11471;SDS011;47430;50.808;4.388;2022-09-27T03:16:09;2.70;;;1.67;;
11471;SDS011;47430;50.808;4.388;2022-09-27T03:18:35;2.90;;;1.70;;
11471;SDS011;47430;50.808;4.388;2022-09-27T03:21:02;4.87;;;1.80;;
11471;SDS011;47430;50.808;4.388;2022-09-27T03:23:28;1.90;;;1.60;;
11471;SDS011;47430;50.808;4.388;2022-09-27T03:25:54;1.60;;;1.30;;
11471;SDS011;47430;50.808;4.388;2022-09-27T03:28:20;2.93;;;1.50;;
11471;SDS011;47430;50.808;4.388;2022-09-27T03:30:46;3.20;;;1.30;;
11471;SDS011;47430;50.808;4.388;2022-09-27T03:33:12;3.57;;;1.70;;
11471;SDS011;47430;50.808;4.388;2022-09-27T03:35:38;2.23;;;1.30;;
11471;SDS011;47430;50.808;4.388;2022-09-27T03:38:06;3.10;;;1.50;;
11471;SDS011;47430;50.808;4.388;2022-09-27T03:40:33;2.50;;;1.20;;
11471;SDS011;47430;50.808;4.388;2022-09-27T03:43:00;6.03;;;1.37;;
11471;SDS011;47430;50.808;4.388;2022-09-27T03:45:26;2.07;;;1.20;;
11471;SDS011;47430;50.808;4.388;2022-09-27T03:47:52;3.50;;;1.83;;
11471;SDS011;47430;50.808;4.388;2022-09-27T03:50:18;4.23;;;1.83;;
11471;SDS011;47430;50.808;4.388;2022-09-27T03:52:44;3.40;;;1.33;;
11471;SDS011;47430;50.808;4.388;2022-09-27T03:55:11;2.70;;;1.50;;
11471;SDS011;47430;50.808;4.388;2022-09-27T03:57:37;2.53;;;2.07;;
11471;SDS011;47430;50.808;4.388;2022-09-27T04:00:04;4.80;;;1.50;;
11471;SDS011;47430;50.808;4.388;2022-09-27T04:02:31;5.03;;;2.00;;
11471;SDS011;47430;50.808;4.388;2022-09-27T04:04:57;3.23;;;1.70;;
11471;SDS011;47430;50.808;4.388;2022-09-27T04:07:23;3.63;;;1.83;;
11471;SDS011;47430;50.808;4.388;2022-09-27T04:09:49;1.63;;;1.50;;
11471;SDS011;47430;50.808;4.388;2022-09-27T04:12:15;4.60;;;2.00;;
11471;SDS011;47430;50.808;4.388;2022-09-27T04:14:41;2.30;;;1.60;;
11471;SDS011;47430;50.808;4.388;2022-09-27T04:17:07;3.23;;;1.93;;
11471;SDS011;47430;50.808;4.388;2022-09-27T04:19:33;2.47;;;2.00;;
11471;SDS011;47430;50.808;4.388;2022-09-27T04:22:00;5.53;;;2.10;;
11471;SDS011;47430;50.808;4.388;2022-09-27T04:24:26;4.10;;;2.73;;
11471;SDS011;47430;50.808;4.388;2022-09-27T04:26:52;8.80;;;2.73;;
11471;SDS011;47430;50.808;4.388;2022-09-27T04:29:18;3.73;;;2.40;;
11471;SDS011;47430;50.808;4.388;2022-09-27T04:31:44;2.60;;;2.20;;
11471;SDS011;47430;50.808;4.388;2022-09-27T04:34:11;5.77;;;2.80;;
11471;SDS011;47430;50.808;4.388;2022-09-27T04:36:37;7.87;;;2.87;;
11471;SDS011;47430;50.808;4.388;2022-09-27T04:39:04;7.67;;;3.80;;
11471;SDS011;47430;50.808;4.388;2022-09-27T04:41:30;4.90;;;2.87;;
11471;SDS011;47430;50.808;4.388;2022-09-27T04:43:57;8.17;;;3.97;;
11471;SDS011;47430;50.808;4.388;2022-09-27T04:46:25;7.00;;;3.67;;
11471;SDS011;47430;50.808;4.388;2022-09-27T04:48:53;7.63;;;3.83;;
11471;SDS011;47430;50.808;4.388;2022-09-27T04:51:19;5.90;;;3.80;;
11471;SDS011;47430;50.808;4.388;2022-09-27T04:53:45;9.73;;;3.73;;
11471;SDS011;47430;50.808;4.388;2022-09-27T04:56:12;4.40;;;3.47;;
11471;SDS011;47430;50.808;4.388;2022-09-27T04:58:40;5.50;;;3.47;;
11471;SDS011;47430;50.808;4.388;2022-09-27T05:01:06;5.47;;;3.80;;
11471;SDS011;47430;50.808;4.388;2022-09-27T05:03:33;3.97;;;2.80;;
11471;SDS011;47430;50.808;4.388;2022-09-27T05:05:59;4.67;;;3.00;;
11471;SDS011;47430;50.808;4.388;2022-09-27T05:08:26;6.53;;;2.67;;
11471;SDS011;47430;50.808;4.388;2022-09-27T05:10:52;3.57;;;2.80;;
11471;SDS011;47430;50.808;4.388;2022-09-27T05:13:18;5.83;;;3.00;;
11471;SDS011;47430;50.808;4.388;2022-09-27T05:15:44;6.17;;;3.27;;
11471;SDS011;47430;50.808;4.388;2022-09-27T05:18:11;5.33;;;3.57;;
11471;SDS011;47430;50.808;4.388;2022-09-27T05:20:37;6.73;;;2.87;;
11471;SDS011;47430;50.808;4.388;2022-09-27T05:23:03;4.77;;;3.07;;
11471;SDS011;47430;50.808;4.388;2022-09-27T05:25:30;4.57;;;3.27;;
11471;SDS011;47430;50.808;4.388;2022-09-27T05:27:56;5.60;;;3.70;;
11471;SDS011;47430;50.808;4.388;2022-09-27T05:30:22;4.77;;;3.30;;
11471;SDS011;47430;50.808;4.388;2022-09-27T05:32:49;5.47;;;3.50;;
11471;SDS011;47430;50.808;4.388;2022-09-27T05:35:15;6.10;;;3.20;;
11471;SDS011;47430;50.808;4.388;2022-09-27T05:37:54;8.30;;;3.33;;
11471;SDS011;47430;50.808;4.388;2022-09-27T05:40:21;6.33;;;3.10;;
11471;SDS011;47430;50.808;4.388;2022-09-27T05:42:49;3.93;;;3.03;;
11471;SDS011;47430;50.808;4.388;2022-09-27T05:45:15;3.60;;;3.13;;
11471;SDS011;47430;50.808;4.388;2022-09-27T05:47:41;4.90;;;3.47;;
11471;SDS011;47430;50.808;4.388;2022-09-27T05:50:07;3.53;;;3.13;;
11471;SDS011;47430;50.808;4.388;2022-09-27T05:52:34;9.57;;;3.10;;
11471;SDS011;47430;50.808;4.388;2022-09-27T05:55:00;3.87;;;2.77;;
11471;SDS011;47430;50.808;4.388;2022-09-27T05:57:26;4.57;;;3.20;;
11471;SDS011;47430;50.808;4.388;2022-09-27T05:59:52;5.40;;;2.90;;
11471;SDS011;47430;50.808;4.388;2022-09-27T06:02:18;4.50;;;3.10;;
11471;SDS011;47430;50.808;4.388;2022-09-27T06:04:44;5.70;;;3.70;;
11471;SDS011;47430;50.808;4.388;2022-09-27T06:07:10;7.13;;;3.40;;
11471;SDS011;47430;50.808;4.388;2022-09-27T06:09:36;4.67;;;3.10;;
11471;SDS011;47430;50.808;4.388;2022-09-27T06:12:02;7.47;;;3.23;;
11471;SDS011;47430;50.808;4.388;2022-09-27T06:14:28;5.43;;;2.93;;
11471;SDS011;47430;50.808;4.388;2022-09-27T06:16:54;3.30;;;2.40;;
11471;SDS011;47430;50.808;4.388;2022-09-27T06:19:20;3.97;;;2.63;;
11471;SDS011;47430;50.808;4.388;2022-09-27T06:21:49;6.93;;;3.00;;
11471;SDS011;47430;50.808;4.388;2022-09-27T06:24:15;5.17;;;3.00;;
11471;SDS011;47430;50.808;4.388;2022-09-27T06:26:41;4.63;;;2.70;;
11471;SDS011;47430;50.808;4.388;2022-09-27T06:29:08;4.23;;;2.57;;
11471;SDS011;47430;50.808;4.388;2022-09-27T06:31:34;5.23;;;3.27;;
11471;SDS011;47430;50.808;4.388;2022-09-27T06:34:01;3.80;;;2.80;;
11471;SDS011;47430;50.808;4.388;2022-09-27T06:36:27;6.27;;;3.13;;
11471;SDS011;47430;50.808;4.388;2022-09-27T06:38:54;4.40;;;2.73;;
11471;SDS011;47430;50.808;4.388;2022-09-27T06:41:20;5.60;;;2.80;;
11471;SDS011;47430;50.808;4.388;2022-09-27T06:43:47;4.10;;;2.77;;
11471;SDS011;47430;50.808;4.388;2022-09-27T06:46:13;9.13;;;3.73;;
11471;SDS011;47430;50.808;4.388;2022-09-27T06:48:39;5.47;;;2.70;;
11471;SDS011;47430;50.808;4.388;2022-09-27T06:51:06;5.83;;;2.87;;
11471;SDS011;47430;50.808;4.388;2022-09-27T06:53:32;4.97;;;2.90;;
11471;SDS011;47430;50.808;4.388;2022-09-27T06:56:01;7.87;;;3.13;;
11471;SDS011;47430;50.808;4.388;2022-09-27T06:58:28;3.03;;;2.60;;
11471;SDS011;47430;50.808;4.388;2022-09-27T07:01:13;4.23;;;2.60;;
11471;SDS011;47430;50.808;4.388;2022-09-27T07:03:39;4.17;;;2.80;;
11471;SDS011;47430;50.808;4.388;2022-09-27T07:06:16;7.50;;;2.87;;
11471;SDS011;47430;50.808;4.388;2022-09-27T07:08:42;4.73;;;2.70;;
11471;SDS011;47430;50.808;4.388;2022-09-27T07:11:08;8.73;;;3.43;;
11471;SDS011;47430;50.808;4.388;2022-09-27T07:13:34;5.63;;;3.27;;
11471;SDS011;47430;50.808;4.388;2022-09-27T07:16:04;4.80;;;3.23;;
11471;SDS011;47430;50.808;4.388;2022-09-27T07:18:30;6.23;;;3.60;;
11471;SDS011;47430;50.808;4.388;2022-09-27T07:20:58;4.73;;;3.40;;
11471;SDS011;47430;50.808;4.388;2022-09-27T07:23:24;3.63;;;3.17;;
11471;SDS011;47430;50.808;4.388;2022-09-27T07:25:50;5.27;;;3.40;;
11471;SDS011;47430;50.808;4.388;2022-09-27T07:28:17;6.47;;;3.33;;
11471;SDS011;47430;50.808;4.388;2022-09-27T07:30:44;3.53;;;3.13;;
11471;SDS011;47430;50.808;4.388;2022-09-27T07:33:10;3.90;;;3.30;;
11471;SDS011;47430;50.808;4.388;2022-09-27T07:35:43;6.17;;;3.77;;
11471;SDS011;47430;50.808;4.388;2022-09-27T07:38:10;8.73;;;3.47;;
11471;SDS011;47430;50.808;4.388;2022-09-27T07:40:39;5.43;;;3.10;;
11471;SDS011;47430;50.808;4.388;2022-09-27T07:43:08;5.03;;;3.27;;
11471;SDS011;47430;50.808;4.388;2022-09-27T07:45:37;4.87;;;3.23;;
11471;SDS011;47430;50.808;4.388;2022-09-27T07:48:04;9.27;;;3.80;;
11471;SDS011;47430;50.808;4.388;2022-09-27T07:50:30;4.73;;;3.40;;
11471;SDS011;47430;50.808;4.388;2022-09-27T07:53:02;5.03;;;3.63;;
11471;SDS011;47430;50.808;4.388;2022-09-27T07:55:29;4.87;;;3.53;;
11471;SDS011;47430;50.808;4.388;2022-09-27T07:58:05;8.40;;;3.83;;
11471;SDS011;47430;50.808;4.388;2022-09-27T08:00:32;6.60;;;4.03;;
11471;SDS011;47430;50.808;4.388;2022-09-27T08:03:02;9.10;;;3.87;;
11471;SDS011;47430;50.808;4.388;2022-09-27T08:05:28;5.10;;;3.47;;
11471;SDS011;47430;50.808;4.388;2022-09-27T08:07:55;6.03;;;3.10;;
11471;SDS011;47430;50.808;4.388;2022-09-27T08:10:21;7.83;;;5.43;;
11471;SDS011;47430;50.808;4.388;2022-09-27T08:12:54;6.03;;;3.37;;
11471;SDS011;47430;50.808;4.388;2022-09-27T08:15:20;6.07;;;3.40;;
11471;SDS011;47430;50.808;4.388;2022-09-27T08:17:46;4.43;;;2.80;;
11471;SDS011;47430;50.808;4.388;2022-09-27T08:20:12;3.73;;;3.00;;
11471;SDS011;47430;50.808;4.388;2022-09-27T08:22:42;3.00;;;2.73;;
11471;SDS011;47430;50.808;4.388;2022-09-27T08:25:08;4.03;;;2.40;;
11471;SDS011;47430;50.808;4.388;2022-09-27T08:27:34;3.07;;;2.17;;
11471;SDS011;47430;50.808;4.388;2022-09-27T08:30:00;3.50;;;2.20;;
11471;SDS011;47430;50.808;4.388;2022-09-27T08:32:27;3.97;;;2.20;;
11471;SDS011;47430;50.808;4.388;2022-09-27T08:34:54;3.10;;;2.40;;
11471;SDS011;47430;50.808;4.388;2022-09-27T08:37:20;7.23;;;2.90;;
11471;SDS011;47430;50.808;4.388;2022-09-27T08:39:47;3.50;;;2.40;;
11471;SDS011;47430;50.808;4.388;2022-09-27T08:45:20;5.73;;;3.30;;
11471;SDS011;47430;50.808;4.388;2022-09-27T08:47:48;5.37;;;2.70;;
11471;SDS011;47430;50.808;4.388;2022-09-27T08:52:51;4.67;;;2.73;;
11471;SDS011;47430;50.808;4.388;2022-09-27T08:55:22;6.37;;;2.93;;
11471;SDS011;47430;50.808;4.388;2022-09-27T08:57:54;4.20;;;2.50;;
11471;SDS011;47430;50.808;4.388;2022-09-27T09:00:20;4.23;;;2.67;;
11471;SDS011;47430;50.808;4.388;2022-09-27T09:02:47;7.78;;;2.38;;
11471;SDS011;47430;50.808;4.388;2022-09-27T09:05:15;3.97;;;2.53;;
11471;SDS011;47430;50.808;4.388;2022-09-27T09:13:23;2.47;;;2.13;;
11471;SDS011;47430;50.808;4.388;2022-09-27T09:23:40;3.70;;;2.60;;
11471;SDS011;47430;50.808;4.388;2022-09-27T09:31:41;4.43;;;1.70;;
11471;SDS011;47430;50.808;4.388;2022-09-27T09:34:25;1.90;;;1.77;;
11471;SDS011;47430;50.808;4.388;2022-09-27T09:36:53;2.22;;;1.85;;
11471;SDS011;47430;50.808;4.388;2022-09-27T09:39:29;6.30;;;1.60;;
11471;SDS011;47430;50.808;4.388;2022-09-27T09:47:14;2.60;;;1.90;;
11471;SDS011;47430;50.808;4.388;2022-09-27T09:49:45;2.35;;;1.65;;
11471;SDS011;47430;50.808;4.388;2022-09-27T09:52:15;5.80;;;1.88;;
11471;SDS011;47430;50.808;4.388;2022-09-27T09:57:35;3.58;;;1.88;;
11471;SDS011;47430;50.808;4.388;2022-09-27T10:00:05;5.82;;;2.13;;
11471;SDS011;47430;50.808;4.388;2022-09-27T10:02:33;2.15;;;1.73;;
11471;SDS011;47430;50.808;4.388;2022-09-27T10:05:11;8.27;;;2.10;;
11471;SDS011;47430;50.808;4.388;2022-09-27T10:07:39;6.43;;;2.00;;
11471;SDS011;47430;50.808;4.388;2022-09-27T10:10:05;3.45;;;1.90;;
11471;SDS011;47430;50.808;4.388;2022-09-27T10:12:32;3.88;;;1.60;;
11471;SDS011;47430;50.808;4.388;2022-09-27T10:14:59;12.80;;;4.47;;
11471;SDS011;47430;50.808;4.388;2022-09-27T10:17:32;34.03;;;10.68;;
11471;SDS011;47430;50.808;4.388;2022-09-27T10:20:00;9.32;;;3.35;;
11471;SDS011;47430;50.808;4.388;2022-09-27T10:22:31;6.00;;;2.10;;
11471;SDS011;47430;50.808;4.388;2022-09-27T10:25:02;10.43;;;2.55;;
11471;SDS011;47430;50.808;4.388;2022-09-27T10:27:41;3.65;;;2.38;;
11471;SDS011;47430;50.808;4.388;2022-09-27T10:32:49;7.45;;;2.58;;
11471;SDS011;47430;50.808;4.388;2022-09-27T10:40:39;5.78;;;1.92;;
11471;SDS011;47430;50.808;4.388;2022-09-27T10:48:29;2.88;;;1.90;;
11471;SDS011;47430;50.808;4.388;2022-09-27T10:51:38;9.30;;;2.03;;
11471;SDS011;47430;50.808;4.388;2022-09-27T10:53:45;4.72;;;2.08;;
11471;SDS011;47430;50.808;4.388;2022-09-27T10:56:19;3.65;;;2.03;;
11471;SDS011;47430;50.808;4.388;2022-09-27T10:58:46;11.60;;;2.58;;
11471;SDS011;47430;50.808;4.388;2022-09-27T11:01:12;5.32;;;2.42;;
11471;SDS011;47430;50.808;4.388;2022-09-27T11:03:44;5.60;;;2.90;;
11471;SDS011;47430;50.808;4.388;2022-09-27T11:06:18;7.50;;;2.63;;
11471;SDS011;47430;50.808;4.388;2022-09-27T11:08:44;7.32;;;2.90;;
11471;SDS011;47430;50.808;4.388;2022-09-27T11:13:39;4.95;;;2.15;;
11471;SDS011;47430;50.808;4.388;2022-09-27T11:19:00;5.75;;;1.83;;
11471;SDS011;47430;50.808;4.388;2022-09-27T11:21:50;4.75;;;1.60;;
11471;SDS011;47430;50.808;4.388;2022-09-27T11:27:50;1.75;;;1.23;;
11471;SDS011;47430;50.808;4.388;2022-09-27T11:45:19;1.02;;;0.80;;
11471;SDS011;47430;50.808;4.388;2022-09-27T11:47:56;5.65;;;1.10;;
11471;SDS011;47430;50.808;4.388;2022-09-27T11:50:47;3.88;;;1.40;;
11471;SDS011;47430;50.808;4.388;2022-09-27T11:55:49;2.58;;;1.25;;
11471;SDS011;47430;50.808;4.388;2022-09-27T11:58:20;4.50;;;1.42;;
11471;SDS011;47430;50.808;4.388;2022-09-27T12:01:00;2.28;;;1.50;;
11471;SDS011;47430;50.808;4.388;2022-09-27T12:14:05;2.67;;;1.00;;
11471;SDS011;47430;50.808;4.388;2022-09-27T12:16:31;3.55;;;1.27;;
11471;SDS011;47430;50.808;4.388;2022-09-27T12:19:00;6.43;;;1.50;;
11471;SDS011;47430;50.808;4.388;2022-09-27T12:21:26;6.32;;;0.95;;
11471;SDS011;47430;50.808;4.388;2022-09-27T12:23:55;5.75;;;1.75;;
11471;SDS011;47430;50.808;4.388;2022-09-27T12:26:28;1.75;;;1.00;;
11471;SDS011;47430;50.808;4.388;2022-09-27T12:28:59;2.30;;;0.90;;
11471;SDS011;47430;50.808;4.388;2022-09-27T12:31:32;2.72;;;1.15;;
11471;SDS011;47430;50.808;4.388;2022-09-27T12:37:18;3.90;;;1.00;;
11471;SDS011;47430;50.808;4.388;2022-09-27T12:39:42;2.38;;;1.30;;
11471;SDS011;47430;50.808;4.388;2022-09-27T12:42:19;1.73;;;1.13;;
11471;SDS011;47430;50.808;4.388;2022-09-27T12:44:47;2.83;;;1.50;;
11471;SDS011;47430;50.808;4.388;2022-09-27T12:52:25;3.50;;;2.10;;
11471;SDS011;47430;50.808;4.388;2022-09-27T13:07:29;5.63;;;2.13;;
11471;SDS011;47430;50.808;4.388;2022-09-27T13:10:13;2.65;;;1.77;;
11471;SDS011;47430;50.808;4.388;2022-09-27T13:12:46;6.28;;;2.00;;
11471;SDS011;47430;50.808;4.388;2022-09-27T13:15:18;3.47;;;1.80;;
11471;SDS011;47430;50.808;4.388;2022-09-27T13:20:35;2.60;;;1.90;;
11471;SDS011;47430;50.808;4.388;2022-09-27T13:30:57;4.20;;;1.45;;
11471;SDS011;47430;50.808;4.388;2022-09-27T13:33:31;6.53;;;1.60;;
11471;SDS011;47430;50.808;4.388;2022-09-27T13:36:05;4.82;;;2.00;;
11471;SDS011;47430;50.808;4.388;2022-09-27T13:38:31;4.60;;;1.58;;
11471;SDS011;47430;50.808;4.388;2022-09-27T13:41:14;6.30;;;1.50;;
11471;SDS011;47430;50.808;4.388;2022-09-27T13:46:19;6.40;;;1.60;;
11471;SDS011;47430;50.808;4.388;2022-09-27T13:51:39;4.57;;;1.73;;
11471;SDS011;47430;50.808;4.388;2022-09-27T13:57:51;4.88;;;1.67;;
11471;SDS011;47430;50.808;4.388;2022-09-27T13:59:52;3.03;;;1.60;;
11471;SDS011;47430;50.808;4.388;2022-09-27T14:04:48;3.03;;;1.50;;
11471;SDS011;47430;50.808;4.388;2022-09-27T14:07:23;6.15;;;1.50;;
11471;SDS011;47430;50.808;4.388;2022-09-27T14:09:53;4.15;;;1.35;;
11471;SDS011;47430;50.808;4.388;2022-09-27T14:12:23;3.90;;;1.52;;
11471;SDS011;47430;50.808;4.388;2022-09-27T14:14:50;7.28;;;1.73;;
11471;SDS011;47430;50.808;4.388;2022-09-27T14:17:18;6.70;;;1.73;;
11471;SDS011;47430;50.808;4.388;2022-09-27T14:19:44;7.22;;;1.92;;
11471;SDS011;47430;50.808;4.388;2022-09-27T14:22:16;5.97;;;1.95;;
11471;SDS011;47430;50.808;4.388;2022-09-27T14:24:44;5.45;;;1.88;;
11471;SDS011;47430;50.808;4.388;2022-09-27T14:27:18;5.15;;;1.60;;
11471;SDS011;47430;50.808;4.388;2022-09-27T14:30:26;4.80;;;2.28;;
11471;SDS011;47430;50.808;4.388;2022-09-27T14:32:33;2.80;;;1.25;;
11471;SDS011;47430;50.808;4.388;2022-09-27T14:35:01;6.10;;;1.73;;
11471;SDS011;47430;50.808;4.388;2022-09-27T14:37:28;8.88;;;1.90;;
11471;SDS011;47430;50.808;4.388;2022-09-27T14:39:55;8.68;;;2.20;;
11471;SDS011;47430;50.808;4.388;2022-09-27T14:42:23;8.80;;;1.83;;
11471;SDS011;47430;50.808;4.388;2022-09-27T14:44:50;6.75;;;2.03;;
11471;SDS011;47430;50.808;4.388;2022-09-27T14:47:18;6.18;;;2.08;;
11471;SDS011;47430;50.808;4.388;2022-09-27T14:50:29;7.93;;;2.05;;
11471;SDS011;47430;50.808;4.388;2022-09-27T14:52:37;3.15;;;1.73;;
11471;SDS011;47430;50.808;4.388;2022-09-27T14:55:08;6.65;;;2.45;;
11471;SDS011;47430;50.808;4.388;2022-09-27T14:57:35;8.27;;;1.75;;
11471;SDS011;47430;50.808;4.388;2022-09-27T15:00:36;4.22;;;2.00;;
11471;SDS011;47430;50.808;4.388;2022-09-27T15:02:57;3.35;;;1.30;;
11471;SDS011;47430;50.808;4.388;2022-09-27T15:05:25;3.33;;;1.40;;
11471;SDS011;47430;50.808;4.388;2022-09-27T15:07:52;2.88;;;1.30;;
11471;SDS011;47430;50.808;4.388;2022-09-27T15:10:29;2.25;;;1.73;;
11471;SDS011;47430;50.808;4.388;2022-09-27T15:12:55;3.83;;;1.48;;
11471;SDS011;47430;50.808;4.388;2022-09-27T15:15:29;3.63;;;1.30;;
11471;SDS011;47430;50.808;4.388;2022-09-27T15:17:56;4.82;;;1.92;;
11471;SDS011;47430;50.808;4.388;2022-09-27T15:20:30;3.05;;;1.33;;
11471;SDS011;47430;50.808;4.388;2022-09-27T15:22:57;1.38;;;1.00;;
11471;SDS011;47430;50.808;4.388;2022-09-27T15:27:56;3.60;;;1.48;;
11471;SDS011;47430;50.808;4.388;2022-09-27T15:30:27;6.07;;;1.20;;
11471;SDS011;47430;50.808;4.388;2022-09-27T15:32:57;2.90;;;1.10;;
11471;SDS011;47430;50.808;4.388;2022-09-27T15:35:25;4.20;;;1.40;;
11471;SDS011;47430;50.808;4.388;2022-09-27T15:37:51;4.57;;;1.42;;
11471;SDS011;47430;50.808;4.388;2022-09-27T15:43:19;3.85;;;1.30;;
11471;SDS011;47430;50.808;4.388;2022-09-27T15:45:50;2.50;;;1.00;;
11471;SDS011;47430;50.808;4.388;2022-09-27T15:48:17;3.22;;;1.20;;
11471;SDS011;47430;50.808;4.388;2022-09-27T15:50:44;2.53;;;1.08;;
11471;SDS011;47430;50.808;4.388;2022-09-27T15:53:12;1.92;;;1.40;;
11471;SDS011;47430;50.808;4.388;2022-09-27T15:55:56;3.22;;;1.17;;
11471;SDS011;47430;50.808;4.388;2022-09-27T15:58:23;1.58;;;1.30;;
11471;SDS011;47430;50.808;4.388;2022-09-27T16:00:56;3.53;;;1.23;;
11471;SDS011;47430;50.808;4.388;2022-09-27T16:03:23;1.92;;;1.30;;
11471;SDS011;47430;50.808;4.388;2022-09-27T16:05:49;4.30;;;1.98;;
11471;SDS011;47430;50.808;4.388;2022-09-27T16:08:15;6.80;;;2.03;;
11471;SDS011;47430;50.808;4.388;2022-09-27T16:10:43;1.63;;;1.30;;
11471;SDS011;47430;50.808;4.388;2022-09-27T16:13:09;3.47;;;1.65;;
11471;SDS011;47430;50.808;4.388;2022-09-27T16:15:35;4.13;;;1.63;;
11471;SDS011;47430;50.808;4.388;2022-09-27T16:18:02;3.25;;;1.42;;
11471;SDS011;47430;50.808;4.388;2022-09-27T16:20:30;4.43;;;1.48;;
11471;SDS011;47430;50.808;4.388;2022-09-27T16:22:57;4.18;;;1.45;;
11471;SDS011;47430;50.808;4.388;2022-09-27T16:25:23;2.28;;;1.40;;
11471;SDS011;47430;50.808;4.388;2022-09-27T16:27:49;7.30;;;1.35;;
11471;SDS011;47430;50.808;4.388;2022-09-27T16:30:16;3.47;;;2.10;;
11471;SDS011;47430;50.808;4.388;2022-09-27T16:32:43;5.60;;;1.60;;
11471;SDS011;47430;50.808;4.388;2022-09-27T16:35:10;2.40;;;1.30;;
11471;SDS011;47430;50.808;4.388;2022-09-27T16:37:36;2.33;;;1.52;;
11471;SDS011;47430;50.808;4.388;2022-09-27T16:40:03;2.28;;;1.40;;
11471;SDS011;47430;50.808;4.388;2022-09-27T16:42:29;6.85;;;2.50;;
11471;SDS011;47430;50.808;4.388;2022-09-27T16:44:55;4.38;;;2.13;;
11471;SDS011;47430;50.808;4.388;2022-09-27T16:47:21;3.95;;;1.80;;
11471;SDS011;47430;50.808;4.388;2022-09-27T16:49:47;3.33;;;1.70;;
11471;SDS011;47430;50.808;4.388;2022-09-27T16:52:32;7.20;;;1.88;;
11471;SDS011;47430;50.808;4.388;2022-09-27T16:54:58;6.43;;;2.17;;
11471;SDS011;47430;50.808;4.388;2022-09-27T16:57:25;6.47;;;1.77;;
11471;SDS011;47430;50.808;4.388;2022-09-27T16:59:57;5.25;;;2.35;;
11471;SDS011;47430;50.808;4.388;2022-09-27T17:02:23;6.63;;;3.13;;
11471;SDS011;47430;50.808;4.388;2022-09-27T17:04:50;5.60;;;2.80;;
11471;SDS011;47430;50.808;4.388;2022-09-27T17:07:16;7.38;;;3.17;;
11471;SDS011;47430;50.808;4.388;2022-09-27T17:09:42;5.75;;;2.20;;
11471;SDS011;47430;50.808;4.388;2022-09-27T17:12:09;6.75;;;2.58;;
11471;SDS011;47430;50.808;4.388;2022-09-27T17:14:35;7.63;;;3.22;;
11471;SDS011;47430;50.808;4.388;2022-09-27T17:17:01;6.88;;;2.75;;
11471;SDS011;47430;50.808;4.388;2022-09-27T17:19:27;6.82;;;3.30;;
11471;SDS011;47430;50.808;4.388;2022-09-27T17:21:53;6.47;;;3.20;;
11471;SDS011;47430;50.808;4.388;2022-09-27T17:24:20;10.75;;;3.72;;
11471;SDS011;47430;50.808;4.388;2022-09-27T17:26:46;10.98;;;3.60;;
11471;SDS011;47430;50.808;4.388;2022-09-27T17:29:12;8.40;;;3.45;;
11471;SDS011;47430;50.808;4.388;2022-09-27T17:31:38;9.07;;;4.10;;
11471;SDS011;47430;50.808;4.388;2022-09-27T17:34:05;8.27;;;3.90;;
11471;SDS011;47430;50.808;4.388;2022-09-27T17:36:32;8.52;;;3.70;;
11471;SDS011;47430;50.808;4.388;2022-09-27T17:39:02;7.57;;;3.88;;
11471;SDS011;47430;50.808;4.388;2022-09-27T17:41:28;6.70;;;4.32;;
11471;SDS011;47430;50.808;4.388;2022-09-27T17:43:57;5.82;;;3.90;;
11471;SDS011;47430;50.808;4.388;2022-09-27T17:46:28;6.53;;;3.75;;
11471;SDS011;47430;50.808;4.388;2022-09-27T17:48:54;6.32;;;3.60;;
11471;SDS011;47430;50.808;4.388;2022-09-27T17:51:39;5.70;;;3.63;;